createdAt,value
2018-07-26T00:02:01.222Z,56.01
2018-07-26T00:04:29.325Z,56.38
2018-07-26T00:06:57.699Z,57.20
2018-07-26T00:09:25.737Z,57.02
2018-07-26T00:11:53.771Z,57.43
2018-07-26T00:14:22.526Z,57.95
2018-07-26T00:16:50.764Z,59.24
2018-07-26T00:19:19.219Z,58.32
2018-07-26T00:21:47.384Z,59.01
2018-07-26T00:24:15.873Z,59.92
2018-07-26T00:26:44.247Z,60.13
2018-07-26T00:29:12.811Z,60.02
2018-07-26T00:31:41.011Z,60.55
2018-07-26T00:34:09.922Z,60.24
2018-07-26T00:36:38.373Z,60.86
2018-07-26T00:39:09.339Z,60.77
2018-07-26T00:41:37.805Z,61.36
2018-07-26T00:44:06.299Z,60.87
2018-07-26T00:46:35.162Z,61.11
2018-07-26T00:49:03.877Z,61.98
2018-07-26T00:51:32.473Z,61.71
2018-07-26T00:54:00.939Z,62.06
2018-07-26T00:56:29.231Z,61.23
2018-07-26T00:58:57.674Z,61.45
2018-07-26T01:01:25.763Z,62.69
2018-07-26T01:03:54.470Z,62.46
2018-07-26T01:06:23.167Z,62.57
2018-07-26T01:08:51.779Z,62.41
2018-07-26T01:11:20.182Z,62.39
2018-07-26T01:13:49.207Z,62.41
2018-07-26T01:16:17.785Z,63.15
2018-07-26T01:18:46.984Z,62.88
2018-07-26T01:21:15.204Z,63.36
2018-07-26T01:23:43.435Z,63.44
2018-07-26T01:26:12.238Z,63.27
2018-07-26T01:28:41.134Z,63.20
2018-07-26T01:31:09.611Z,63.13
2018-07-26T01:33:38.413Z,64.27
2018-07-26T01:36:07.377Z,63.80
2018-07-26T01:38:35.775Z,63.98
2018-07-26T01:41:04.273Z,63.79
2018-07-26T01:43:53.799Z,63.60
2018-07-26T01:46:23.414Z,64.51
2018-07-26T01:48:51.608Z,64.67
2018-07-26T01:51:20.029Z,65.43
2018-07-26T01:53:48.596Z,65.36
2018-07-26T01:56:17.228Z,65.52
2018-07-26T01:58:45.930Z,65.58
2018-07-26T02:01:14.477Z,65.76
2018-07-26T02:03:42.897Z,65.37
2018-07-26T02:06:11.536Z,65.50
2018-07-26T02:08:39.868Z,65.92
2018-07-26T02:11:08.328Z,66.79
2018-07-26T02:13:36.597Z,65.82
2018-07-26T02:16:05.036Z,66.53
2018-07-26T02:18:33.403Z,67.40
2018-07-26T02:21:02.366Z,67.53
2018-07-26T02:23:31.030Z,67.21
2018-07-26T02:25:59.648Z,68.03
2018-07-26T02:28:28.369Z,68.71
2018-07-26T02:30:56.922Z,68.65
2018-07-26T02:33:25.161Z,68.72
2018-07-26T02:35:54.076Z,68.75
2018-07-26T02:38:22.476Z,68.61
2018-07-26T02:40:50.552Z,68.66
2018-07-26T02:43:19.303Z,68.41
2018-07-26T02:45:47.728Z,68.59
2018-07-26T02:48:16.240Z,68.85
2018-07-26T02:50:44.604Z,69.39
2018-07-26T02:53:12.993Z,69.17
2018-07-26T02:55:41.037Z,69.06
2018-07-26T02:58:09.681Z,69.22
2018-07-26T03:00:38.406Z,69.30
2018-07-26T03:03:07.510Z,69.26
2018-07-26T03:05:36.823Z,69.03
2018-07-26T03:08:05.867Z,69.51
2018-07-26T03:10:34.619Z,69.81
2018-07-26T03:13:03.380Z,69.92
2018-07-26T03:15:31.872Z,69.77
2018-07-26T03:18:00.400Z,69.26
2018-07-26T03:20:29.435Z,69.00
2018-07-26T03:22:57.794Z,68.89
2018-07-26T03:25:25.845Z,68.98
2018-07-26T03:27:54.794Z,68.78
2018-07-26T03:30:22.887Z,69.04
2018-07-26T03:32:51.455Z,69.41
2018-07-26T03:35:20.566Z,69.57
2018-07-26T03:37:49.083Z,69.62
2018-07-26T03:40:17.573Z,69.39
2018-07-26T03:42:46.182Z,69.68
2018-07-26T03:45:14.732Z,70.30
2018-07-26T03:47:43.229Z,70.35
2018-07-26T03:50:11.339Z,69.94
2018-07-26T03:52:39.700Z,70.32
2018-07-26T03:55:07.983Z,71.19
2018-07-26T03:57:36.537Z,71.66
2018-07-26T04:00:05.997Z,72.06
2018-07-26T04:02:34.416Z,72.13
2018-07-26T04:05:03.151Z,72.28
2018-07-26T04:07:31.199Z,72.19
2018-07-26T04:09:59.651Z,72.28
2018-07-26T04:12:28.076Z,71.86
2018-07-26T04:14:57.253Z,71.93
2018-07-26T04:17:25.582Z,71.68
2018-07-26T04:19:54.497Z,71.93
2018-07-26T04:22:22.552Z,72.09
2018-07-26T04:24:51.267Z,71.75
2018-07-26T04:27:19.642Z,72.09
2018-07-26T04:29:47.731Z,72.09
2018-07-26T04:32:16.017Z,72.00
2018-07-26T04:34:44.469Z,71.97
2018-07-26T04:37:12.722Z,71.92
2018-07-26T04:39:41.019Z,71.92
2018-07-26T04:42:09.495Z,71.73
2018-07-26T04:44:38.039Z,71.92
2018-07-26T04:47:06.340Z,71.72
2018-07-26T04:49:35.040Z,71.69
2018-07-26T04:52:03.348Z,71.29
2018-07-26T04:54:31.555Z,71.42
2018-07-26T04:57:00.162Z,70.94
2018-07-26T04:59:28.631Z,70.87
2018-07-26T05:01:56.692Z,70.85
2018-07-26T05:04:25.658Z,70.82
2018-07-26T05:06:53.823Z,70.52
2018-07-26T05:09:21.862Z,70.56
2018-07-26T05:11:50.798Z,70.46
2018-07-26T05:14:19.082Z,70.33
2018-07-26T05:16:47.487Z,70.18
2018-07-26T05:19:16.127Z,69.99
2018-07-26T05:21:44.361Z,70.01
2018-07-26T05:24:12.880Z,70.52
2018-07-26T05:26:40.891Z,70.17
2018-07-26T05:29:09.218Z,70.09
2018-07-26T05:31:37.920Z,69.96
2018-07-26T05:34:06.337Z,70.08
2018-07-26T05:36:34.725Z,69.84
2018-07-26T05:39:03.207Z,69.62
2018-07-26T05:41:31.596Z,69.49
2018-07-26T05:44:00.142Z,69.10
2018-07-26T05:46:28.591Z,69.01
2018-07-26T05:48:57.616Z,68.90
2018-07-26T05:51:26.139Z,68.85
2018-07-26T05:53:54.697Z,68.59
2018-07-26T05:56:23.021Z,68.60
2018-07-26T05:58:51.424Z,68.61
2018-07-26T06:01:19.865Z,67.79
2018-07-26T06:03:48.791Z,67.57
2018-07-26T06:06:17.269Z,67.20
2018-07-26T06:08:45.540Z,67.21
2018-07-26T06:11:13.805Z,66.84
2018-07-26T06:13:41.940Z,66.73
2018-07-26T06:16:10.744Z,66.56
2018-07-26T06:18:39.244Z,65.93
2018-07-26T06:21:08.066Z,65.40
2018-07-26T06:23:37.133Z,65.44
2018-07-26T06:26:05.547Z,64.91
2018-07-26T06:28:33.787Z,64.99
2018-07-26T06:31:02.127Z,63.55
2018-07-26T06:33:30.386Z,62.49
2018-07-26T06:35:58.693Z,62.38
2018-07-26T06:38:27.079Z,61.79
2018-07-26T06:40:55.407Z,61.76
2018-07-26T06:43:23.429Z,61.58
2018-07-26T06:45:51.864Z,61.01
2018-07-26T06:48:20.511Z,60.98
2018-07-26T06:50:49.211Z,60.33
2018-07-26T06:53:17.254Z,60.10
2018-07-26T06:55:45.845Z,59.32
2018-07-26T06:58:14.211Z,59.06
2018-07-26T07:00:42.826Z,58.07
2018-07-26T07:03:11.127Z,56.99
2018-07-26T07:05:39.240Z,56.80
2018-07-26T07:08:08.093Z,56.16
2018-07-26T07:10:36.519Z,55.69
2018-07-26T07:13:04.918Z,55.48
2018-07-26T07:15:33.048Z,55.22
2018-07-26T07:21:00.491Z,53.72
2018-07-26T07:23:28.835Z,52.09
2018-07-26T07:25:57.773Z,51.42
2018-07-26T07:28:26.477Z,51.01
2018-07-26T07:30:55.080Z,50.18
2018-07-26T07:33:23.994Z,49.76
2018-07-26T07:35:52.490Z,48.56
2018-07-26T07:38:21.120Z,48.64
2018-07-26T07:40:49.238Z,47.60
2018-07-26T07:43:17.385Z,48.29
2018-07-26T07:45:46.152Z,46.71
2018-07-26T07:48:14.731Z,45.86
2018-07-26T07:50:43.059Z,44.89
2018-07-26T07:53:11.346Z,44.26
2018-07-26T07:55:39.451Z,44.93
2018-07-26T07:58:07.549Z,43.61
2018-07-26T08:00:36.290Z,43.02
2018-07-26T08:03:04.759Z,42.43
2018-07-26T08:05:33.458Z,43.52
2018-07-26T08:08:01.910Z,42.53
2018-07-26T08:10:30.228Z,41.52
2018-07-26T08:12:58.262Z,42.21
2018-07-26T08:15:27.354Z,42.17
2018-07-26T08:17:55.509Z,42.33
2018-07-26T08:20:23.867Z,42.16
2018-07-26T08:22:53.565Z,42.15
2018-07-26T08:25:21.842Z,42.09
2018-07-26T08:27:50.277Z,41.64
2018-07-26T08:30:18.492Z,42.46
2018-07-26T08:32:47.120Z,41.00
2018-07-26T08:35:15.328Z,40.94
2018-07-26T08:37:43.363Z,40.80
2018-07-26T08:40:11.429Z,41.57
2018-07-26T08:42:39.775Z,40.75
2018-07-26T08:45:08.987Z,40.03
2018-07-26T08:47:37.536Z,37.76
2018-07-26T08:50:10.742Z,38.19
2018-07-26T08:52:40.031Z,37.86
2018-07-26T08:55:08.347Z,38.15
2018-07-26T08:57:36.485Z,37.56
2018-07-26T09:00:07.716Z,36.71
2018-07-26T09:02:36.310Z,37.24
2018-07-26T09:05:06.580Z,38.62
2018-07-26T09:07:35.101Z,38.97
2018-07-26T09:10:04.379Z,38.75
2018-07-26T09:12:32.921Z,37.63
2018-07-26T09:15:01.161Z,36.29
2018-07-26T09:17:29.549Z,36.19
2018-07-26T09:19:57.604Z,35.15
2018-07-26T09:22:26.760Z,35.32
2018-07-26T09:24:55.687Z,35.68
2018-07-26T09:27:23.800Z,35.45
2018-07-26T09:29:51.933Z,35.48
2018-07-26T09:32:20.287Z,34.63
2018-07-26T09:34:48.478Z,34.67
2018-07-26T09:37:16.588Z,33.85
2018-07-26T09:39:44.671Z,33.45
2018-07-26T09:42:13.036Z,32.80
2018-07-26T09:44:42.118Z,33.37
2018-07-26T09:47:10.219Z,33.03
2018-07-26T09:49:38.381Z,32.87
2018-07-26T09:52:06.551Z,31.29
2018-07-26T09:54:35.016Z,30.24
2018-07-26T09:57:03.373Z,31.21
2018-07-26T09:59:31.997Z,31.31
2018-07-26T10:02:00.583Z,32.35
2018-07-26T10:04:28.952Z,31.72
2018-07-26T10:06:57.656Z,31.49
2018-07-26T10:09:25.707Z,30.16
2018-07-26T10:11:54.985Z,31.30
2018-07-26T10:14:23.081Z,30.16
2018-07-26T10:16:51.409Z,28.67
2018-07-26T10:19:19.747Z,31.00
2018-07-26T10:21:48.215Z,31.17
2018-07-26T10:25:40.804Z,29.31
2018-07-26T10:28:08.981Z,28.80
2018-07-26T10:30:37.651Z,28.93
2018-07-26T10:33:06.099Z,28.09
2018-07-26T10:35:34.387Z,28.67
2018-07-26T10:38:03.196Z,28.98
2018-07-26T10:40:31.383Z,29.54
2018-07-26T10:42:59.552Z,29.91
2018-07-26T10:45:28.517Z,30.39
2018-07-26T10:47:56.607Z,30.07
2018-07-26T10:50:25.147Z,29.79
2018-07-26T10:52:54.036Z,29.72
2018-07-26T10:55:22.183Z,29.58
2018-07-26T10:57:51.065Z,29.66
2018-07-26T11:00:19.528Z,29.36
2018-07-26T11:02:47.687Z,28.96
2018-07-26T11:05:16.756Z,28.19
2018-07-26T11:07:45.046Z,28.27
2018-07-26T11:10:13.533Z,28.66
2018-07-26T11:12:44.546Z,28.45
2018-07-26T11:15:21.624Z,27.83
2018-07-26T11:17:50.175Z,27.75
2018-07-26T11:20:18.638Z,28.04
2018-07-26T11:22:47.207Z,28.36
2018-07-26T11:25:15.563Z,28.13
2018-07-26T11:27:43.971Z,28.48
2018-07-26T11:30:12.277Z,28.85
2018-07-26T11:32:40.837Z,29.79
2018-07-26T11:35:09.549Z,29.21
2018-07-26T11:37:37.614Z,29.64
2018-07-26T11:40:05.771Z,29.85
2018-07-26T11:42:33.791Z,28.12
2018-07-26T11:45:02.330Z,28.59
2018-07-26T11:47:30.439Z,29.15
2018-07-26T11:49:58.801Z,28.26
2018-07-26T11:52:26.878Z,28.40
2018-07-26T11:54:54.941Z,27.86
2018-07-26T11:57:23.586Z,26.95
2018-07-26T11:59:51.671Z,27.21
2018-07-26T12:02:19.926Z,25.63
2018-07-26T12:04:48.825Z,25.63
2018-07-26T12:07:16.973Z,26.00
2018-07-26T12:09:45.074Z,25.95
2018-07-26T12:12:13.444Z,24.59
2018-07-26T12:14:41.692Z,25.51
2018-07-26T12:17:10.299Z,25.84
2018-07-26T12:19:38.760Z,26.17
2018-07-26T12:22:07.240Z,26.25
2018-07-26T12:24:35.437Z,25.78
2018-07-26T12:27:04.831Z,25.20
2018-07-26T12:29:33.191Z,24.88
2018-07-26T12:32:01.291Z,24.07
2018-07-26T12:34:29.807Z,24.86
2018-07-26T12:36:58.544Z,23.75
2018-07-26T12:39:26.720Z,23.82
2018-07-26T12:41:54.923Z,24.31
2018-07-26T12:44:23.031Z,24.20
2018-07-26T12:46:52.367Z,23.75
2018-07-26T12:49:20.723Z,22.59
2018-07-26T12:51:48.812Z,22.69
2018-07-26T12:54:16.891Z,22.32
2018-07-26T12:56:44.942Z,22.68
2018-07-26T12:59:13.146Z,23.46
2018-07-26T13:01:41.555Z,23.90
2018-07-26T13:04:10.172Z,24.23
2018-07-26T13:06:38.332Z,24.41
2018-07-26T13:09:08.376Z,22.89
2018-07-26T13:11:36.938Z,22.37
2018-07-26T13:14:06.727Z,22.07
2018-07-26T13:16:35.427Z,21.66
2018-07-26T13:19:04.006Z,22.08
2018-07-26T13:21:32.733Z,20.93
2018-07-26T13:24:00.822Z,21.52
2018-07-26T13:26:29.330Z,21.33
2018-07-26T13:28:57.654Z,20.82
2018-07-26T13:31:26.401Z,20.05
2018-07-26T13:33:55.295Z,20.65
2018-07-26T13:36:23.420Z,20.33
2018-07-26T13:38:52.320Z,20.40
2018-07-26T13:41:21.386Z,20.13
2018-07-26T13:43:50.579Z,20.49
2018-07-26T13:46:19.171Z,20.24
2018-07-26T13:48:48.328Z,20.85
2018-07-26T13:51:16.588Z,20.38
2018-07-26T13:53:45.186Z,20.40
2018-07-26T13:56:13.410Z,20.52
2018-07-26T13:58:43.586Z,19.96
2018-07-26T14:01:13.954Z,20.18
2018-07-26T14:03:42.074Z,19.86
2018-07-26T14:06:10.545Z,19.95
2018-07-26T14:08:38.730Z,19.45
2018-07-26T14:11:07.525Z,19.60
2018-07-26T14:13:36.184Z,19.04
2018-07-26T14:16:05.292Z,19.20
2018-07-26T14:18:35.763Z,19.45
2018-07-26T14:21:05.226Z,19.53
2018-07-26T14:23:41.563Z,19.58
2018-07-26T14:26:13.548Z,19.55
2018-07-26T14:28:50.914Z,19.37
2018-07-26T14:31:20.276Z,19.67
2018-07-26T14:33:58.761Z,20.23
2018-07-26T14:36:29.926Z,19.92
2018-07-26T14:39:04.968Z,20.40
2018-07-26T14:41:33.919Z,20.08
2018-07-26T14:44:07.284Z,20.33
2018-07-26T14:46:38.955Z,20.29
2018-07-26T14:49:07.412Z,19.74
2018-07-26T14:57:18.330Z,20.25
2018-07-26T14:59:49.573Z,20.95
2018-07-26T15:02:22.599Z,21.04
2018-07-26T15:05:00.637Z,21.36
2018-07-26T15:08:00.096Z,21.25
2018-07-26T15:10:31.354Z,21.72
2018-07-26T15:13:02.085Z,21.67
2018-07-26T15:15:35.673Z,21.72
2018-07-26T15:21:02.755Z,21.34
2018-07-26T15:23:31.596Z,21.42
2018-07-26T15:25:59.872Z,21.69
2018-07-26T15:28:28.348Z,21.52
2018-07-26T15:30:58.820Z,21.53
2018-07-26T15:33:26.871Z,21.35
2018-07-26T15:35:54.935Z,22.12
2018-07-26T15:38:23.351Z,22.14
2018-07-26T15:40:52.267Z,22.10
2018-07-26T15:43:20.923Z,22.54
2018-07-26T15:45:50.179Z,22.43
2018-07-26T15:48:18.563Z,22.61
2018-07-26T15:50:48.513Z,22.62
2018-07-26T15:53:17.484Z,22.46
2018-07-26T15:55:50.284Z,22.98
2018-07-26T15:58:21.159Z,22.82
2018-07-26T16:00:49.293Z,22.77
2018-07-26T16:03:17.977Z,22.46
2018-07-26T16:05:46.686Z,22.69
2018-07-26T16:08:15.516Z,22.77
2018-07-26T16:10:43.753Z,22.37
2018-07-26T16:13:11.963Z,22.47
2018-07-26T16:15:43.470Z,22.68
2018-07-26T16:18:12.414Z,22.56
2018-07-26T16:20:41.703Z,21.97
2018-07-26T16:23:10.136Z,21.93
2018-07-26T16:25:38.693Z,22.55
2018-07-26T16:28:07.128Z,22.31
2018-07-26T16:30:36.002Z,22.45
2018-07-26T16:33:04.233Z,22.81
2018-07-26T16:35:32.692Z,22.75
2018-07-26T16:38:01.190Z,22.42
2018-07-26T16:40:29.317Z,22.59
2018-07-26T16:42:57.417Z,22.72
2018-07-26T16:45:25.834Z,22.51
2018-07-26T16:47:53.985Z,22.78
2018-07-26T16:50:22.537Z,22.55
2018-07-26T16:52:50.710Z,22.91
2018-07-26T16:55:19.011Z,22.42
2018-07-26T16:57:47.887Z,22.35
2018-07-26T17:00:16.191Z,22.66
2018-07-26T17:02:44.757Z,22.68
2018-07-26T17:05:13.697Z,22.72
2018-07-26T17:07:42.717Z,22.97
2018-07-26T17:10:12.142Z,22.94
2018-07-26T17:12:40.780Z,22.75
2018-07-26T17:15:11.168Z,22.75
2018-07-26T17:17:39.443Z,23.33
2018-07-26T17:20:08.678Z,23.22
2018-07-26T17:22:39.412Z,23.48
2018-07-26T17:25:08.386Z,23.48
2018-07-26T17:27:36.693Z,23.58
2018-07-26T17:30:05.818Z,23.60
2018-07-26T17:32:34.039Z,23.70
2018-07-26T17:35:02.464Z,23.64
2018-07-26T17:37:30.862Z,23.65
2018-07-26T17:39:59.326Z,23.47
2018-07-26T17:42:27.760Z,23.41
2018-07-26T17:44:56.260Z,23.14
2018-07-26T17:47:24.682Z,23.09
2018-07-26T17:49:54.725Z,23.39
2018-07-26T17:52:23.605Z,23.45
2018-07-26T17:54:52.166Z,23.26
2018-07-26T17:57:20.622Z,23.56
2018-07-26T17:59:49.316Z,22.97
2018-07-26T18:02:18.578Z,23.19
2018-07-26T18:04:48.056Z,23.98
2018-07-26T18:07:20.028Z,24.03
2018-07-26T18:09:48.321Z,23.45
2018-07-26T18:12:16.579Z,23.67
2018-07-26T18:14:45.239Z,23.86
2018-07-26T18:17:13.626Z,24.23
2018-07-26T18:19:42.351Z,24.28
2018-07-26T18:22:11.059Z,24.76
2018-07-26T18:24:39.257Z,25.14
2018-07-26T18:27:08.707Z,25.37
2018-07-26T18:29:38.498Z,25.39
2018-07-26T18:32:07.111Z,25.95
2018-07-26T18:34:36.101Z,26.42
2018-07-26T18:37:05.146Z,27.09
2018-07-26T18:39:34.411Z,27.50
2018-07-26T18:42:03.146Z,28.14
2018-07-26T18:44:31.484Z,28.50
2018-07-26T18:47:00.572Z,28.82
2018-07-26T18:49:29.160Z,29.02
2018-07-26T18:51:58.304Z,29.48
2018-07-26T18:54:26.842Z,29.69
2018-07-26T18:56:56.602Z,29.78
2018-07-26T18:59:25.388Z,30.07
2018-07-26T19:01:54.346Z,30.19
2018-07-26T19:04:22.613Z,30.63
2018-07-26T19:06:51.240Z,30.89
2018-07-26T19:09:19.588Z,30.86
2018-07-26T19:11:47.683Z,30.92
2018-07-26T19:14:15.787Z,31.09
2018-07-26T19:16:43.874Z,31.45
2018-07-26T19:19:12.646Z,31.82
2018-07-26T19:21:40.754Z,31.67
2018-07-26T19:24:10.541Z,31.92
2018-07-26T19:26:48.368Z,31.94
2018-07-26T19:29:18.880Z,31.81
2018-07-26T19:31:47.279Z,32.62
2018-07-26T19:34:15.432Z,32.59
2018-07-26T19:36:43.594Z,32.63
2018-07-26T19:39:13.009Z,33.33
2018-07-26T19:41:41.863Z,32.93
2018-07-26T19:44:11.524Z,33.23
2018-07-26T19:46:39.968Z,33.46
2018-07-26T19:49:08.442Z,33.60
2018-07-26T19:51:36.907Z,34.12
2018-07-26T19:54:06.285Z,34.23
2018-07-26T19:56:35.051Z,34.55
2018-07-26T19:59:04.004Z,34.67
2018-07-26T20:01:32.401Z,35.07
2018-07-26T20:04:00.665Z,35.57
2018-07-26T20:06:28.974Z,35.36
2018-07-26T20:08:57.313Z,35.50
2018-07-26T20:11:25.919Z,35.88
2018-07-26T20:13:54.165Z,36.33
2018-07-26T20:16:22.819Z,36.30
2018-07-26T20:18:51.994Z,36.35
2018-07-26T20:21:20.212Z,36.64
2018-07-26T20:23:50.181Z,36.94
2018-07-26T20:26:20.625Z,37.73
2018-07-26T20:28:50.018Z,37.63
2018-07-26T20:31:18.619Z,37.70
2018-07-26T20:33:49.977Z,37.75
2018-07-26T20:36:18.543Z,37.92
2018-07-26T20:38:47.731Z,38.05
2018-07-26T20:41:16.311Z,38.09
2018-07-26T20:43:44.456Z,38.86
2018-07-26T20:46:13.867Z,38.66
2018-07-26T20:48:42.720Z,39.72
2018-07-26T20:51:11.099Z,39.80
2018-07-26T20:53:39.470Z,39.59
2018-07-26T20:56:13.395Z,39.38
2018-07-26T20:58:44.198Z,39.21
2018-07-26T21:01:24.523Z,39.17
2018-07-26T21:03:55.946Z,39.38
2018-07-26T21:06:29.409Z,39.51
2018-07-26T21:08:59.878Z,39.67
2018-07-26T21:11:30.422Z,39.84
2018-07-26T21:14:01.181Z,40.43
2018-07-26T21:16:33.719Z,40.38
2018-07-26T21:19:05.288Z,40.96
2018-07-26T21:21:37.557Z,41.64
2018-07-26T21:24:13.139Z,42.08
2018-07-26T21:26:46.894Z,42.40
2018-07-26T21:29:16.344Z,42.58
2018-07-26T21:31:46.170Z,42.72
2018-07-26T21:34:16.643Z,43.22
2018-07-26T21:36:48.782Z,43.98
2018-07-26T21:39:18.923Z,43.93
2018-07-26T21:41:47.687Z,43.60
2018-07-26T21:44:16.674Z,44.93
2018-07-26T21:46:46.543Z,44.77
2018-07-26T21:49:17.896Z,45.35
2018-07-26T21:51:48.723Z,44.98
2018-07-26T21:54:17.080Z,45.40
2018-07-26T21:56:45.156Z,45.97
2018-07-26T21:59:14.703Z,46.04
2018-07-26T22:01:45.090Z,45.97
2018-07-26T22:04:14.326Z,45.96
2018-07-26T22:06:42.699Z,46.09
2018-07-26T22:09:12.041Z,46.36
2018-07-26T22:11:44.075Z,46.15
2018-07-26T22:14:13.380Z,46.38
2018-07-26T22:16:42.195Z,46.56
2018-07-26T22:19:10.589Z,46.68
2018-07-26T22:21:39.186Z,46.98
2018-07-26T22:24:07.942Z,47.21
2018-07-26T22:26:36.573Z,47.19
2018-07-26T22:29:04.931Z,47.24
2018-07-26T22:31:33.919Z,47.13
2018-07-26T22:34:02.333Z,48.17
2018-07-26T22:36:30.467Z,48.08
2018-07-26T22:38:59.112Z,48.87
2018-07-26T22:41:31.818Z,48.63
2018-07-26T22:44:01.453Z,48.86
2018-07-26T22:46:29.982Z,48.75
2018-07-26T22:48:58.056Z,49.81
2018-07-26T22:51:26.502Z,50.34
2018-07-26T22:53:56.508Z,50.83
2018-07-26T22:56:25.168Z,50.34
2018-07-26T22:58:54.006Z,50.20
2018-07-26T23:01:24.885Z,50.91
2018-07-26T23:03:54.068Z,50.90
2018-07-26T23:06:25.009Z,50.97
2018-07-26T23:08:53.315Z,51.56
2018-07-26T23:11:21.991Z,52.17
2018-07-26T23:13:50.300Z,52.13
2018-07-26T23:16:19.834Z,51.66
2018-07-26T23:18:48.551Z,52.02
2018-07-26T23:21:16.601Z,52.01
2018-07-26T23:23:45.451Z,52.48
2018-07-26T23:26:15.172Z,51.87
2018-07-26T23:28:43.300Z,51.50
2018-07-26T23:31:11.554Z,52.20
2018-07-26T23:33:39.915Z,51.81
2018-07-26T23:36:09.232Z,52.58
2018-07-26T23:38:37.860Z,52.61
2018-07-26T23:41:06.624Z,53.07
2018-07-26T23:43:36.096Z,53.90
2018-07-26T23:46:08.906Z,53.38
2018-07-26T23:48:37.841Z,54.16
2018-07-26T23:51:07.843Z,53.63
2018-07-26T23:53:36.031Z,53.96
2018-07-26T23:56:05.016Z,54.59
2018-07-26T23:58:34.304Z,54.20
